Time;durP1;ratioP1;P1;durP2;ratioP2;P2;SDS_P1;SDS_P2;PMS_P1;PMS_P2;Temp;Humidity;BMP_temperature;BMP_pressure;BME280_temperature;BME280_humidity;BME280_pressure;Samples;Min_cycle;Max_cycle;Signal;HPM_P1;HPM_P2
2021/07/10 00:00:25;;;;;;;;;17.25;16.75;;;;;-146.80;100.00;64830.25;5077335;27;46164;-70
2021/07/10 00:02:51;;;;;;;;;17.25;15.00;;;;;-146.80;100.00;64830.25;5076354;28;46241;-68
2021/07/10 00:05:16;;;;;;;;;34.25;25.25;;;;;-146.80;100.00;64830.25;5077887;27;45387;-67
2021/07/10 00:07:43;;;;;;;;;19.50;15.25;;;;;-146.80;100.00;64830.25;5076280;28;45711;-67
2021/07/10 00:10:13;;;;;;;;;15.00;14.00;;;;;-146.80;100.00;64830.25;5077434;28;46002;-68
2021/07/10 00:12:39;;;;;;;;;15.00;14.75;;;;;-146.80;100.00;64830.25;5076152;28;45297;-68
2021/07/10 00:15:06;;;;;;;;;16.75;14.00;;;;;-146.80;100.00;64830.25;5077234;27;45207;-67
2021/07/10 00:17:32;;;;;;;;;13.75;12.00;;;;;-146.80;100.00;64830.25;5075894;28;45485;-67
2021/07/10 00:19:58;;;;;;;;;31.50;27.75;;;;;-146.80;100.00;64830.25;5077058;28;46106;-69
2021/07/10 00:22:23;;;;;;;;;14.25;13.00;;;;;-146.80;100.00;64830.25;5077281;28;45440;-68
2021/07/10 00:24:48;;;;;;;;;14.00;12.25;;;;;-146.80;100.00;64830.25;5077823;27;45531;-68
2021/07/10 00:27:14;;;;;;;;;17.50;15.00;;;;;-146.80;100.00;64830.25;5076174;28;45579;-70
2021/07/10 00:29:39;;;;;;;;;17.25;14.75;;;;;-146.80;100.00;64830.25;5077212;28;46322;-68
2021/07/10 00:32:05;;;;;;;;;14.00;13.75;;;;;-146.80;100.00;64830.25;5075693;28;45297;-67
2021/07/10 00:34:31;;;;;;;;;20.25;16.75;;;;;-146.80;100.00;64830.25;5077220;28;45334;-70
2021/07/10 00:36:56;;;;;;;;;19.25;16.75;;;;;-146.80;100.00;64830.25;5077080;28;45424;-68
2021/07/10 00:39:22;;;;;;;;;17.00;14.00;;;;;-146.80;100.00;64830.25;5077436;27;46168;-69
2021/07/10 00:41:47;;;;;;;;;12.00;11.25;;;;;-146.80;100.00;64830.25;5077387;27;45334;-68
2021/07/10 00:44:13;;;;;;;;;13.00;12.50;;;;;-146.80;100.00;64830.25;5077331;28;45773;-67
2021/07/10 00:46:38;;;;;;;;;15.25;11.75;;;;;-146.80;100.00;64830.25;5077526;27;45424;-67
2021/07/10 00:49:04;;;;;;;;;13.75;13.00;;;;;-146.80;100.00;64830.25;5076625;28;46270;-67
2021/07/10 00:51:29;;;;;;;;;17.25;15.00;;;;;-146.80;100.00;64830.25;5076969;28;45382;-67
2021/07/10 00:53:54;;;;;;;;;16.00;13.50;;;;;-146.80;100.00;64830.25;5075760;28;45294;-69
2021/07/10 00:56:20;;;;;;;;;13.75;13.25;;;;;-146.80;100.00;64830.25;5075940;28;45705;-68
2021/07/10 00:58:46;;;;;;;;;17.25;14.50;;;;;-146.80;100.00;64830.25;5076550;28;46960;-67
2021/07/10 01:01:12;;;;;;;;;15.00;13.25;;;;;-146.80;100.00;64830.25;5076567;28;45250;-68
2021/07/10 01:03:44;;;;;;;;;17.00;12.00;;;;;-146.80;100.00;64830.25;5076747;28;45256;-70
2021/07/10 01:06:09;;;;;;;;;19.00;13.50;;;;;-146.80;100.00;64830.25;5075532;28;45518;-68
2021/07/10 01:08:35;;;;;;;;;13.00;12.25;;;;;-146.80;100.00;64830.25;5075056;28;48211;-67
2021/07/10 01:11:02;;;;;;;;;14.25;12.00;;;;;-146.80;100.00;64830.25;5076712;28;45231;-69
2021/07/10 01:13:27;;;;;;;;;16.75;13.00;;;;;-146.80;100.00;64830.25;5076583;27;45323;-69
2021/07/10 01:15:52;;;;;;;;;13.25;12.25;;;;;-146.80;100.00;64830.25;5076955;28;45510;-70
2021/07/10 01:18:18;;;;;;;;;15.75;11.75;;;;;-146.80;100.00;64830.25;5076405;28;46138;-67
2021/07/10 01:20:51;;;;;;;;;13.75;13.50;;;;;-146.80;100.00;64830.25;5075963;28;45126;-70
2021/07/10 01:23:17;;;;;;;;;12.25;12.00;;;;;-146.80;100.00;64830.25;5076732;28;45397;-69
2021/07/10 01:25:44;;;;;;;;;15.50;12.25;;;;;-146.80;100.00;64830.25;5075367;28;45569;-67
2021/07/10 01:28:09;;;;;;;;;12.50;10.75;;;;;-146.80;100.00;64830.25;5076211;28;46032;-70
2021/07/10 01:30:36;;;;;;;;;16.50;13.75;;;;;-146.80;100.00;64830.25;5074587;28;45347;-68
2021/07/10 01:33:04;;;;;;;;;16.50;13.75;;;;;-146.80;100.00;64830.25;5076484;28;45325;-68
2021/07/10 01:35:30;;;;;;;;;11.25;11.25;;;;;-146.80;100.00;64830.25;5074983;28;45568;-68
2021/07/10 01:37:55;;;;;;;;;13.50;11.75;;;;;-146.80;100.00;64830.25;5076299;28;45367;-68
2021/07/10 01:40:23;;;;;;;;;13.00;10.75;;;;;-146.80;100.00;64830.25;5075175;28;45252;-70
2021/07/10 01:42:49;;;;;;;;;19.00;17.00;;;;;-146.80;100.00;64830.25;5076163;28;45389;-68
2021/07/10 01:45:17;;;;;;;;;17.00;15.50;;;;;-146.80;100.00;64830.25;5076314;27;45576;-69
2021/07/10 01:47:49;;;;;;;;;16.00;14.50;;;;;-146.80;100.00;64830.25;5075964;28;46054;-68
2021/07/10 01:50:15;;;;;;;;;16.75;13.75;;;;;-146.80;100.00;64830.25;5076085;28;45291;-68
2021/07/10 01:52:46;;;;;;;;;16.50;14.00;;;;;-146.80;100.00;64830.25;5075952;28;45328;-68
2021/07/10 01:55:14;;;;;;;;;15.25;13.50;;;;;-146.80;100.00;64830.25;5074920;28;45304;-66
2021/07/10 01:57:43;;;;;;;;;11.00;10.25;;;;;-146.80;100.00;64830.25;5075770;28;46031;-67
2021/07/10 02:00:15;;;;;;;;;12.00;10.50;;;;;-146.80;100.00;64830.25;5073930;28;45362;-67
2021/07/10 02:02:41;;;;;;;;;11.00;10.25;;;;;-146.80;100.00;64830.25;5075596;27;45302;-68
2021/07/10 02:05:07;;;;;;;;;13.00;11.25;;;;;-146.80;100.00;64830.25;5074588;28;45400;-69
2021/07/10 02:07:33;;;;;;;;;11.75;10.50;;;;;-146.80;100.00;64830.25;5075624;28;46494;-69
2021/07/10 02:09:58;;;;;;;;;11.50;11.00;;;;;-146.80;100.00;64830.25;5075629;28;45396;-67
2021/07/10 02:12:24;;;;;;;;;18.00;13.25;;;;;-146.80;100.00;64830.25;5075828;28;45300;-67
2021/07/10 02:14:49;;;;;;;;;11.50;10.25;;;;;-146.80;100.00;64830.25;5075874;28;45365;-67
2021/07/10 02:17:15;;;;;;;;;13.50;13.00;;;;;-146.80;100.00;64830.25;5075475;28;45337;-68
2021/07/10 02:19:40;;;;;;;;;11.00;10.25;;;;;-146.80;100.00;64830.25;5075403;28;45305;-69
2021/07/10 02:22:07;;;;;;;;;12.00;9.75;;;;;-146.80;100.00;64830.25;5075359;28;45553;-70
2021/07/10 02:24:33;;;;;;;;;13.75;10.75;;;;;-146.80;100.00;64830.25;5076561;28;45568;-71
2021/07/10 02:26:58;;;;;;;;;10.25;9.25;;;;;-146.80;100.00;64830.25;5075901;28;45280;-70
2021/07/10 02:29:24;;;;;;;;;9.25;9.25;;;;;-146.80;100.00;64830.25;5075955;28;45412;-71
2021/07/10 02:31:49;;;;;;;;;11.00;9.75;;;;;-146.80;100.00;64830.25;5073049;28;45419;-70
2021/07/10 02:34:15;;;;;;;;;16.50;14.00;;;;;-146.80;100.00;64830.25;5075525;28;45516;-71
2021/07/10 02:36:40;;;;;;;;;13.25;11.00;;;;;-146.80;100.00;64830.25;5075417;28;45443;-72
2021/07/10 02:39:06;;;;;;;;;12.50;9.50;;;;;-146.80;100.00;64830.25;5075636;28;45321;-70
2021/07/10 02:41:31;;;;;;;;;12.50;10.00;;;;;-146.80;100.00;64830.25;5057506;28;45471;-72
2021/07/10 02:43:57;;;;;;;;;12.75;11.00;;;;;-146.80;100.00;64830.25;5076479;28;45575;-71
2021/07/10 02:46:22;;;;;;;;;11.25;10.00;;;;;-146.80;100.00;64830.25;5074006;28;48475;-71
2021/07/10 02:48:47;;;;;;;;;14.00;12.50;;;;;-146.80;100.00;64830.25;5073921;28;45368;-72
2021/07/10 02:51:13;;;;;;;;;11.75;10.00;;;;;-146.80;100.00;64830.25;5075601;28;45927;-71
2021/07/10 02:53:39;;;;;;;;;12.25;11.50;;;;;-146.80;100.00;64830.25;5075660;28;45870;-69
2021/07/10 02:56:04;;;;;;;;;14.50;13.75;;;;;-146.80;100.00;64830.25;5075185;27;46229;-70
2021/07/10 02:58:30;;;;;;;;;13.00;10.50;;;;;-146.80;100.00;64830.25;5075421;28;45388;-70
2021/07/10 03:00:55;;;;;;;;;11.50;11.50;;;;;-146.80;100.00;64830.25;5075577;28;45306;-71
2021/07/10 03:03:21;;;;;;;;;12.75;11.75;;;;;-146.80;100.00;64830.25;5075605;27;45579;-71
2021/07/10 03:05:47;;;;;;;;;14.00;14.00;;;;;-146.80;100.00;64830.25;5075379;28;45378;-71
2021/07/10 03:08:12;;;;;;;;;12.25;12.25;;;;;-146.80;100.00;64830.25;5075263;28;45246;-70
2021/07/10 03:10:39;;;;;;;;;11.75;11.75;;;;;-146.80;100.00;64830.25;5073909;28;45294;-70
2021/07/10 03:13:05;;;;;;;;;14.25;14.00;;;;;-146.80;100.00;64830.25;5074898;27;45555;-70
2021/07/10 03:15:30;;;;;;;;;14.00;13.00;;;;;-146.80;100.00;64830.25;5075149;28;45380;-70
2021/07/10 03:17:55;;;;;;;;;17.25;13.25;;;;;-146.80;100.00;64830.25;5075248;28;46013;-70
2021/07/10 03:20:23;;;;;;;;;16.00;15.50;;;;;-146.80;100.00;64830.25;5075260;27;45690;-71
2021/07/10 03:22:49;;;;;;;;;16.00;14.25;;;;;-146.80;100.00;64830.25;5075154;28;45366;-71
2021/07/10 03:25:15;;;;;;;;;13.00;11.75;;;;;-146.80;100.00;64830.25;5074608;27;45391;-71
2021/07/10 03:27:43;;;;;;;;;13.50;11.25;;;;;-146.80;100.00;64830.25;5074700;28;45401;-72
2021/07/10 03:30:10;;;;;;;;;16.75;14.50;;;;;-146.80;100.00;64830.25;5074866;28;45381;-72
2021/07/10 03:32:36;;;;;;;;;13.75;13.25;;;;;-146.80;100.00;64830.25;5073619;28;45389;-71
2021/07/10 03:35:01;;;;;;;;;12.25;10.25;;;;;-146.80;100.00;64830.25;5074958;27;46053;-71
2021/07/10 03:37:27;;;;;;;;;12.25;12.00;;;;;-146.80;100.00;64830.25;5074917;28;45385;-71
2021/07/10 03:39:52;;;;;;;;;15.00;12.50;;;;;-146.80;100.00;64830.25;5075193;28;45322;-71
2021/07/10 03:42:17;;;;;;;;;12.75;11.00;;;;;-146.80;100.00;64830.25;5075447;27;45350;-71
2021/07/10 03:44:43;;;;;;;;;11.75;11.00;;;;;-146.80;100.00;64830.25;5078365;28;45350;-72
2021/07/10 03:47:08;;;;;;;;;12.00;10.25;;;;;-146.80;100.00;64830.25;5078072;28;45324;-71
2021/07/10 03:49:34;;;;;;;;;10.00;9.25;;;;;-146.80;100.00;64830.25;5078316;28;45231;-72
2021/07/10 03:51:59;;;;;;;;;13.00;11.00;;;;;-146.80;100.00;64830.25;5078636;27;45611;-70
2021/07/10 03:54:24;;;;;;;;;15.25;11.50;;;;;-146.80;100.00;64830.25;5077657;28;46166;-71
2021/07/10 03:56:50;;;;;;;;;12.00;11.25;;;;;-146.80;100.00;64830.25;5076559;28;45492;-71
2021/07/10 03:59:15;;;;;;;;;13.75;11.00;;;;;-146.80;100.00;64830.25;5077979;28;45300;-71
2021/07/10 04:01:45;;;;;;;;;12.25;12.25;;;;;-146.80;100.00;64830.25;5078106;28;45575;-71
2021/07/10 04:04:11;;;;;;;;;13.75;11.75;;;;;-146.80;100.00;64830.25;5077917;27;46069;-71
2021/07/10 04:06:36;;;;;;;;;12.75;10.50;;;;;-146.80;100.00;64830.25;5077634;28;45353;-71
2021/07/10 04:09:02;;;;;;;;;14.25;11.75;;;;;-146.80;100.00;64830.25;5077921;27;45449;-70
2021/07/10 04:11:28;;;;;;;;;10.00;9.50;;;;;-146.80;100.00;64830.25;5078033;28;45411;-71
2021/07/10 04:13:53;;;;;;;;;13.75;11.25;;;;;-146.80;100.00;64830.25;5077390;28;45633;-70
2021/07/10 04:16:18;;;;;;;;;14.75;12.00;;;;;-146.80;100.00;64830.25;5077574;27;45389;-71
2021/07/10 04:18:44;;;;;;;;;12.00;12.00;;;;;-146.80;100.00;64830.25;5077786;27;45285;-72
2021/07/10 04:21:10;;;;;;;;;10.00;9.50;;;;;-146.80;100.00;64830.25;5078207;28;45506;-70
2021/07/10 04:23:35;;;;;;;;;11.50;11.00;;;;;-146.80;100.00;64830.25;5077402;28;45382;-71
2021/07/10 04:26:01;;;;;;;;;13.00;11.00;;;;;-146.80;100.00;64830.25;5078004;28;45314;-71
2021/07/10 04:28:26;;;;;;;;;12.50;10.50;;;;;-146.80;100.00;64830.25;5077440;28;45295;-72
2021/07/10 04:30:52;;;;;;;;;13.00;11.00;;;;;-146.80;100.00;64830.25;5076311;28;45281;-72
2021/07/10 04:33:17;;;;;;;;;11.00;11.00;;;;;-146.80;100.00;64830.25;5077197;28;45326;-71
2021/07/10 04:35:42;;;;;;;;;15.00;12.00;;;;;-146.80;100.00;64830.25;5077271;27;45476;-72
2021/07/10 04:38:08;;;;;;;;;13.75;12.50;;;;;-146.80;100.00;64830.25;5076176;28;45273;-70
2021/07/10 04:40:34;;;;;;;;;12.75;11.25;;;;;-146.80;100.00;64830.25;5078257;28;45607;-70
2021/07/10 04:42:59;;;;;;;;;13.25;11.00;;;;;-146.80;100.00;64830.25;5077282;28;45651;-71
2021/07/10 04:45:25;;;;;;;;;16.00;13.00;;;;;-146.80;100.00;64830.25;5077234;28;45336;-70
2021/07/10 04:47:50;;;;;;;;;14.25;11.00;;;;;-146.80;100.00;64830.25;5077160;28;45440;-71
2021/07/10 04:50:16;;;;;;;;;10.50;9.00;;;;;-146.80;100.00;64830.25;5077522;28;45345;-71
2021/07/10 04:52:42;;;;;;;;;11.50;9.50;;;;;-146.80;100.00;64830.25;5077015;28;46450;-71
2021/07/10 04:55:10;;;;;;;;;12.00;11.75;;;;;-146.80;100.00;64830.25;5076054;27;45341;-70
2021/07/10 04:57:36;;;;;;;;;10.25;10.25;;;;;-146.80;100.00;64830.25;5075813;28;45337;-70
2021/07/10 05:00:04;;;;;;;;;6.50;4.50;;;;;-146.80;100.00;64830.25;5077626;28;45215;-71
2021/07/10 05:02:30;;;;;;;;;10.00;10.00;;;;;-146.80;100.00;64830.25;5075394;28;46903;-71
2021/07/10 05:04:55;;;;;;;;;12.25;11.50;;;;;-146.80;100.00;64830.25;5076784;28;45451;-70
2021/07/10 05:07:22;;;;;;;;;13.00;12.00;;;;;-146.80;100.00;64830.25;5077049;28;45868;-71
2021/07/10 05:09:47;;;;;;;;;13.25;13.25;;;;;-146.80;100.00;64830.25;5076974;28;45576;-72
2021/07/10 05:12:14;;;;;;;;;11.25;10.25;;;;;-146.80;100.00;64830.25;5076457;27;45341;-71
2021/07/10 05:14:39;;;;;;;;;13.50;11.00;;;;;-146.80;100.00;64830.25;5075489;28;45361;-72
2021/07/10 05:17:05;;;;;;;;;12.75;10.75;;;;;-146.80;100.00;64830.25;5077199;28;45377;-72
2021/07/10 05:19:30;;;;;;;;;14.25;12.00;;;;;-146.80;100.00;64830.25;5076959;28;45615;-72
2021/07/10 05:21:55;;;;;;;;;17.25;13.50;;;;;-146.80;100.00;64830.25;5076470;27;46164;-71
2021/07/10 05:24:21;;;;;;;;;11.75;11.75;;;;;-146.80;100.00;64830.25;5075226;28;45625;-72
2021/07/10 05:26:46;;;;;;;;;23.50;18.50;;;;;-146.80;100.00;64830.25;5076558;28;45318;-71
2021/07/10 05:29:12;;;;;;;;;11.50;10.50;;;;;-146.80;100.00;64830.25;5075400;28;45390;-71
2021/07/10 05:31:37;;;;;;;;;13.75;10.25;;;;;-146.80;100.00;64830.25;5076299;28;45335;-71
2021/07/10 05:34:02;;;;;;;;;11.75;11.00;;;;;-146.80;100.00;64830.25;5076601;28;45218;-71
2021/07/10 05:36:28;;;;;;;;;11.25;11.25;;;;;-146.80;100.00;64830.25;5076486;28;45227;-72
2021/07/10 05:38:53;;;;;;;;;10.50;10.50;;;;;-146.80;100.00;64830.25;5076943;28;45313;-72
2021/07/10 05:41:20;;;;;;;;;14.25;11.50;;;;;-146.80;100.00;64830.25;5076421;28;45276;-71
2021/07/10 05:43:45;;;;;;;;;11.00;11.00;;;;;-146.80;100.00;64830.25;5076263;27;45389;-72
2021/07/10 05:46:13;;;;;;;;;10.25;10.25;;;;;-146.80;100.00;64830.25;5076313;27;45312;-70
2021/07/10 05:48:39;;;;;;;;;13.00;11.25;;;;;-146.80;100.00;64830.25;5075247;28;45595;-71
2021/07/10 05:51:04;;;;;;;;;9.75;9.00;;;;;-146.80;100.00;64830.25;5075047;28;47809;-71
2021/07/10 05:53:29;;;;;;;;;12.50;11.00;;;;;-146.80;100.00;64830.25;5076057;28;45388;-70
2021/07/10 05:55:55;;;;;;;;;13.00;9.50;;;;;-146.80;100.00;64830.25;5075058;28;45315;-71
2021/07/10 05:58:20;;;;;;;;;12.25;11.25;;;;;-146.80;100.00;64830.25;5076532;28;45480;-71
2021/07/10 06:00:46;;;;;;;;;11.75;9.25;;;;;-146.80;100.00;64830.25;5076067;28;45437;-71
2021/07/10 06:03:11;;;;;;;;;13.25;10.00;;;;;-146.80;100.00;64830.25;5075843;28;45367;-73
2021/07/10 06:05:37;;;;;;;;;12.75;11.00;;;;;-146.80;100.00;64830.25;5076055;28;45584;-73
2021/07/10 06:08:04;;;;;;;;;15.25;12.00;;;;;-146.80;100.00;64830.25;5076236;28;45553;-71
2021/07/10 06:10:29;;;;;;;;;13.00;10.00;;;;;-146.80;100.00;64830.25;5075832;28;45532;-70
2021/07/10 06:12:55;;;;;;;;;11.00;11.00;;;;;-146.80;100.00;64830.25;5075593;28;45502;-71
2021/07/10 06:15:21;;;;;;;;;11.50;11.50;;;;;-146.80;100.00;64830.25;5074769;28;45412;-72
2021/07/10 06:17:46;;;;;;;;;13.25;12.00;;;;;-146.80;100.00;64830.25;5076347;28;45545;-71
2021/07/10 06:20:15;;;;;;;;;11.25;10.75;;;;;-146.80;100.00;64830.25;5075679;27;46268;-71
2021/07/10 06:22:42;;;;;;;;;9.00;9.00;;;;;-146.80;100.00;64830.25;5075806;28;45279;-72
2021/07/10 06:25:11;;;;;;;;;10.00;9.00;;;;;-146.80;100.00;64830.25;5075117;28;45513;-74
2021/07/10 06:27:37;;;;;;;;;12.00;9.00;;;;;-146.80;100.00;64830.25;5076153;28;45358;-72
2021/07/10 06:30:07;;;;;;;;;7.00;7.00;;;;;-146.80;100.00;64830.25;5075680;28;45405;-73
2021/07/10 06:32:33;;;;;;;;;9.00;7.00;;;;;-146.80;100.00;64830.25;5075321;28;45330;-71
2021/07/10 06:34:58;;;;;;;;;9.75;9.75;;;;;-146.80;100.00;64830.25;5074364;28;45377;-73
2021/07/10 06:37:23;;;;;;;;;6.25;6.25;;;;;-146.80;100.00;64830.25;5076032;27;45557;-71
2021/07/10 06:39:49;;;;;;;;;6.00;6.00;;;;;-146.80;100.00;64830.25;5074501;28;46264;-71
2021/07/10 06:42:14;;;;;;;;;9.00;6.75;;;;;-146.80;100.00;64830.25;5074402;28;45429;-72
2021/07/10 06:44:40;;;;;;;;;7.50;6.00;;;;;-146.80;100.00;64830.25;5074934;28;45333;-71
2021/07/10 06:47:05;;;;;;;;;7.00;6.25;;;;;-146.80;100.00;64830.25;5075645;27;45519;-74
2021/07/10 06:49:31;;;;;;;;;6.25;6.25;;;;;-146.80;100.00;64830.25;5075467;27;45364;-71
2021/07/10 06:51:56;;;;;;;;;6.75;5.75;;;;;-146.80;100.00;64830.25;5075426;28;45426;-72
2021/07/10 06:54:21;;;;;;;;;5.50;5.50;;;;;-146.80;100.00;64830.25;5076345;28;45325;-72
2021/07/10 06:56:47;;;;;;;;;5.00;5.00;;;;;-146.80;100.00;64830.25;5076209;28;45349;-71
2021/07/10 06:59:13;;;;;;;;;3.25;2.75;;;;;-146.80;100.00;64830.25;5075580;27;46270;-72
2021/07/10 07:01:38;;;;;;;;;7.50;4.50;;;;;-146.80;100.00;64830.25;5075648;28;45377;-71
2021/07/10 07:04:04;;;;;;;;;5.25;5.25;;;;;-146.80;100.00;64830.25;5075667;27;45483;-73
2021/07/10 07:06:30;;;;;;;;;7.25;5.25;;;;;-146.80;100.00;64830.25;5074207;28;45589;-73
2021/07/10 07:08:55;;;;;;;;;4.25;3.25;;;;;-146.80;100.00;64830.25;5074132;28;45314;-73
2021/07/10 07:11:21;;;;;;;;;4.75;3.50;;;;;-146.80;100.00;64830.25;5075694;28;45235;-71
2021/07/10 07:13:46;;;;;;;;;6.00;3.50;;;;;-146.80;100.00;64830.25;5074344;28;45358;-71
2021/07/10 07:16:12;;;;;;;;;3.00;3.00;;;;;-146.80;100.00;64830.25;5075156;28;45445;-72
2021/07/10 07:18:37;;;;;;;;;2.00;2.00;;;;;-146.80;100.00;64830.25;5077242;28;46363;-72
2021/07/10 07:21:03;;;;;;;;;3.00;2.25;;;;;-146.80;100.00;64830.25;5078786;27;45394;-72
2021/07/10 07:23:28;;;;;;;;;2.25;2.25;;;;;-146.80;100.00;64830.25;5079063;28;45223;-72
2021/07/10 07:25:54;;;;;;;;;3.00;3.00;;;;;-146.80;100.00;64830.25;5079067;28;45456;-72
2021/07/10 07:28:19;;;;;;;;;2.50;2.00;;;;;-146.80;100.00;64830.25;5077318;28;48189;-72
2021/07/10 07:30:45;;;;;;;;;4.25;4.25;;;;;-146.80;100.00;64830.25;5078781;28;45348;-72
2021/07/10 07:33:10;;;;;;;;;4.50;4.50;;;;;-146.80;100.00;64830.25;5079341;28;45427;-73
2021/07/10 07:35:36;;;;;;;;;5.50;3.00;;;;;-146.80;100.00;64830.25;5080257;28;45408;-73
2021/07/10 07:38:02;;;;;;;;;4.00;4.00;;;;;-146.80;100.00;64830.25;5078643;28;47684;-71
2021/07/10 07:40:27;;;;;;;;;2.00;2.00;;;;;-146.80;100.00;64830.25;5077528;28;45425;-73
2021/07/10 07:42:53;;;;;;;;;3.00;3.00;;;;;-146.80;100.00;64830.25;5077345;28;45372;-71
2021/07/10 07:45:18;;;;;;;;;4.50;3.00;;;;;-146.80;100.00;64830.25;5079399;28;45543;-72
2021/07/10 07:47:45;;;;;;;;;5.00;5.00;;;;;-146.80;100.00;64830.25;5060306;28;47888;-72
2021/07/10 07:50:13;;;;;;;;;3.00;3.00;;;;;-146.80;100.00;64830.25;5078751;28;45380;-73
2021/07/10 07:52:39;;;;;;;;;1.00;1.00;;;;;-146.80;100.00;64830.25;5077009;28;45341;-72
2021/07/10 07:55:07;;;;;;;;;3.00;2.00;;;;;-146.80;100.00;64830.25;5077132;28;45511;-72
2021/07/10 07:57:35;;;;;;;;;3.50;3.50;;;;;-146.80;100.00;64830.25;5076691;28;46081;-73
2021/07/10 08:00:01;;;;;;;;;4.00;2.75;;;;;-146.80;100.00;64830.25;5078076;28;45294;-72
2021/07/10 08:02:26;;;;;;;;;2.75;2.00;;;;;-146.80;100.00;64830.25;5078234;28;45357;-72
2021/07/10 08:04:52;;;;;;;;;2.50;1.50;;;;;-146.80;100.00;64830.25;5078331;28;45379;-74
2021/07/10 08:07:18;;;;;;;;;2.25;2.00;;;;;-146.80;100.00;64830.25;5078095;28;45931;-71
2021/07/10 08:09:44;;;;;;;;;4.50;3.75;;;;;-146.80;100.00;64830.25;5111349;27;45270;-73
2021/07/10 08:12:10;;;;;;;;;4.00;3.00;;;;;-146.80;100.00;64830.25;5079526;27;45738;-73
2021/07/10 08:14:38;;;;;;;;;2.00;2.00;;;;;-146.80;100.00;64830.25;5078952;28;45368;-71
2021/07/10 08:17:05;;;;;;;;;2.00;2.00;;;;;-146.80;100.00;64830.25;5076496;28;47494;-73
2021/07/10 08:19:31;;;;;;;;;3.00;3.00;;;;;-146.80;100.00;64830.25;5077693;28;45252;-71
2021/07/10 08:22:00;;;;;;;;;5.00;3.25;;;;;-146.80;100.00;64830.25;5077719;28;45235;-71
2021/07/10 08:24:26;;;;;;;;;2.75;2.75;;;;;-146.80;100.00;64830.25;5078006;28;45292;-73
2021/07/10 08:26:51;;;;;;;;;3.00;3.00;;;;;-146.80;100.00;64830.25;5077628;28;45941;-70
2021/07/10 08:29:17;;;;;;;;;3.00;3.00;;;;;-146.80;100.00;64830.25;5077704;28;45459;-73
2021/07/10 08:31:42;;;;;;;;;6.00;6.00;;;;;-146.80;100.00;64830.25;5077277;28;45814;-73
2021/07/10 08:34:10;;;;;;;;;4.00;4.00;;;;;-146.80;100.00;64830.25;5078145;28;45365;-72
2021/07/10 08:36:36;;;;;;;;;2.00;2.00;;;;;-146.80;100.00;64830.25;5077480;28;45473;-74
2021/07/10 08:39:04;;;;;;;;;3.00;2.75;;;;;-146.80;100.00;64830.25;5077731;27;45862;-72
2021/07/10 08:41:29;;;;;;;;;3.25;2.25;;;;;-146.80;100.00;64830.25;5076231;28;45456;-73
2021/07/10 08:43:55;;;;;;;;;2.50;2.50;;;;;-146.80;100.00;64830.25;5076114;28;45376;-72
2021/07/10 08:46:20;;;;;;;;;4.00;3.00;;;;;-146.80;100.00;64830.25;5076151;28;48158;-72
2021/07/10 08:48:47;;;;;;;;;2.25;2.25;;;;;-146.80;100.00;64830.25;5077685;28;45398;-72
2021/07/10 08:51:13;;;;;;;;;3.00;2.00;;;;;-146.80;100.00;64830.25;5078257;28;45449;-74
2021/07/10 08:53:39;;;;;;;;;4.75;3.75;;;;;-146.80;100.00;64830.25;5078069;28;45537;-71
2021/07/10 08:56:08;;;;;;;;;4.50;4.25;;;;;-146.80;100.00;64830.25;5077372;27;45444;-70
2021/07/10 08:58:35;;;;;;;;;5.25;2.50;;;;;-146.80;100.00;64830.25;5077327;27;45233;-70
2021/07/10 09:01:05;;;;;;;;;5.00;3.50;;;;;-146.80;100.00;64830.25;5077991;28;45484;-70
2021/07/10 09:03:33;;;;;;;;;3.00;3.00;;;;;-146.80;100.00;64830.25;5076108;28;45494;-67
2021/07/10 09:05:59;;;;;;;;;4.00;3.00;;;;;-146.80;100.00;64830.25;5075440;28;47060;-67
2021/07/10 09:08:28;;;;;;;;;2.00;2.00;;;;;-146.80;100.00;64830.25;5077052;27;45303;-64
2021/07/10 09:11:13;;;;;;;;;3.00;2.00;;;;;-146.80;100.00;64830.25;5075626;28;45458;-69
2021/07/10 09:13:42;;;;;;;;;3.25;2.25;;;;;-146.80;100.00;64830.25;5077232;28;45326;-65
2021/07/10 09:16:16;;;;;;;;;5.00;5.00;;;;;-146.80;100.00;64830.25;5075492;28;47109;-68
2021/07/10 09:19:02;;;;;;;;;7.50;5.00;;;;;-146.80;100.00;64830.25;5077111;28;45439;-71
2021/07/10 09:21:44;;;;;;;;;8.00;7.00;;;;;-146.80;100.00;64830.25;5076935;28;45397;-68
2021/07/10 09:24:35;;;;;;;;;5.25;5.25;;;;;-146.80;100.00;64830.25;5076978;28;45500;-67
2021/07/10 09:27:05;;;;;;;;;7.00;7.00;;;;;-146.80;100.00;64830.25;5075439;28;46203;-80
2021/07/10 09:29:47;;;;;;;;;4.75;4.75;;;;;-146.80;100.00;64830.25;5077343;27;45283;-63
2021/07/10 09:32:20;;;;;;;;;5.75;5.75;;;;;-146.80;100.00;64830.25;5077661;27;45408;-74
2021/07/10 09:34:55;;;;;;;;;8.00;6.00;;;;;-146.80;100.00;64830.25;5076226;28;45487;-70
2021/07/10 09:37:26;;;;;;;;;8.50;8.50;;;;;-146.80;100.00;64830.25;5077079;27;46099;-70
2021/07/10 09:40:02;;;;;;;;;7.00;6.00;;;;;-146.80;100.00;64830.25;5075716;28;45396;-62
2021/07/10 09:42:31;;;;;;;;;4.25;3.75;;;;;-146.80;100.00;64830.25;5076574;28;45239;-64
2021/07/10 09:44:56;;;;;;;;;7.00;7.00;;;;;-146.80;100.00;64830.25;5076843;28;45515;-66
2021/07/10 09:47:29;;;;;;;;;5.50;5.50;;;;;-146.80;100.00;64830.25;5075934;28;45808;-65
2021/07/10 09:49:55;;;;;;;;;9.25;7.75;;;;;-146.80;100.00;64830.25;5076558;27;45387;-67
2021/07/10 09:52:28;;;;;;;;;7.25;7.25;;;;;-146.80;100.00;64830.25;5075192;28;45377;-65
2021/07/10 09:55:03;;;;;;;;;5.50;5.00;;;;;-146.80;100.00;64830.25;5076662;28;45370;-66
2021/07/10 09:57:31;;;;;;;;;3.25;3.25;;;;;-146.80;100.00;64830.25;5076098;28;46107;-65
2021/07/10 10:00:13;;;;;;;;;6.75;6.00;;;;;-146.80;100.00;64830.25;5076087;28;45393;-74
2021/07/10 10:02:45;;;;;;;;;10.75;8.25;;;;;-146.80;100.00;64830.25;5076355;28;45359;-65
2021/07/10 10:05:16;;;;;;;;;4.25;4.00;;;;;-146.80;100.00;64830.25;5076415;28;45470;-67
2021/07/10 10:07:46;;;;;;;;;12.00;9.00;;;;;-146.80;100.00;64830.25;5074996;28;45721;-69
2021/07/10 10:10:23;;;;;;;;;10.25;9.00;;;;;-146.80;100.00;64830.25;5076063;27;45306;-68
2021/07/10 10:13:13;;;;;;;;;1.00;1.00;;;;;-146.80;100.00;64830.25;5076229;28;45409;-67
2021/07/10 10:15:51;;;;;;;;;5.75;5.75;;;;;-146.80;100.00;64830.25;5072156;28;45415;-64
2021/07/10 10:18:22;;;;;;;;;4.25;3.50;;;;;-146.80;100.00;64830.25;5074212;28;47967;-67
2021/07/10 10:20:48;;;;;;;;;5.25;5.25;;;;;-146.80;100.00;64830.25;5075787;27;45334;-66
2021/07/10 10:23:16;;;;;;;;;8.25;7.25;;;;;-146.80;100.00;64830.25;5075607;27;45410;-63
2021/07/10 10:25:43;;;;;;;;;6.00;6.00;;;;;-146.80;100.00;64830.25;5076050;28;45230;-64
2021/07/10 10:28:18;;;;;;;;;6.75;6.75;;;;;-146.80;100.00;64830.25;5075539;27;45609;-67
2021/07/10 10:30:47;;;;;;;;;4.25;4.25;;;;;-146.80;100.00;64830.25;5075737;28;45419;-70
2021/07/10 10:33:15;;;;;;;;;12.75;12.00;;;;;-146.80;100.00;64830.25;5074529;28;45369;-70
2021/07/10 10:35:41;;;;;;;;;8.25;8.00;;;;;-146.80;100.00;64830.25;5076137;28;45592;-67
2021/07/10 10:38:07;;;;;;;;;4.50;4.50;;;;;-146.80;100.00;64830.25;5073901;28;47673;-65
2021/07/10 10:40:33;;;;;;;;;7.75;7.75;;;;;-146.80;100.00;64830.25;5075300;28;45422;-65
2021/07/10 10:43:02;;;;;;;;;14.50;13.75;;;;;-146.80;100.00;64830.25;5074282;28;45372;-63
2021/07/10 10:45:34;;;;;;;;;7.50;5.75;;;;;-146.80;100.00;64830.25;5075887;27;45443;-66
2021/07/10 10:48:00;;;;;;;;;4.00;4.00;;;;;-146.80;100.00;64830.25;5075056;28;47191;-66
2021/07/10 10:50:37;;;;;;;;;5.00;5.00;;;;;-146.80;100.00;64830.25;5075059;28;45379;-63
2021/07/10 10:53:05;;;;;;;;;5.50;3.50;;;;;-146.80;100.00;64830.25;5074864;28;45461;-64
2021/07/10 10:55:31;;;;;;;;;7.25;6.50;;;;;-146.80;100.00;64830.25;5078961;27;45271;-62
2021/07/10 10:58:19;;;;;;;;;6.50;5.00;;;;;-146.80;100.00;64830.25;5078526;27;46089;-68